sensor_id;sensor_type;location;lat;lon;timestamp;P1;durP1;ratioP1;P2;durP2;ratioP2
47796;SDS011;33558;50.922;14.068;2022-08-21T00:02:00;43.53;;;32.15;;
47796;SDS011;33558;50.922;14.068;2022-08-21T00:04:27;40.00;;;28.23;;
47796;SDS011;33558;50.922;14.068;2022-08-21T00:06:53;45.00;;;31.40;;
47796;SDS011;33558;50.922;14.068;2022-08-21T00:09:21;46.65;;;31.02;;
47796;SDS011;33558;50.922;14.068;2022-08-21T00:11:48;45.38;;;30.65;;
47796;SDS011;33558;50.922;14.068;2022-08-21T00:14:15;42.33;;;29.65;;
47796;SDS011;33558;50.922;14.068;2022-08-21T00:16:42;43.53;;;31.10;;
47796;SDS011;33558;50.922;14.068;2022-08-21T00:19:08;45.42;;;31.40;;
47796;SDS011;33558;50.922;14.068;2022-08-21T00:21:35;40.63;;;29.38;;
47796;SDS011;33558;50.922;14.068;2022-08-21T00:24:02;40.35;;;29.10;;
47796;SDS011;33558;50.922;14.068;2022-08-21T00:26:30;44.38;;;28.77;;
47796;SDS011;33558;50.922;14.068;2022-08-21T00:28:57;44.30;;;30.25;;
47796;SDS011;33558;50.922;14.068;2022-08-21T00:31:24;51.45;;;34.53;;
47796;SDS011;33558;50.922;14.068;2022-08-21T00:33:50;45.03;;;32.25;;
47796;SDS011;33558;50.922;14.068;2022-08-21T00:36:17;47.90;;;31.67;;
47796;SDS011;33558;50.922;14.068;2022-08-21T00:38:44;45.38;;;32.33;;
47796;SDS011;33558;50.922;14.068;2022-08-21T00:41:11;51.10;;;33.47;;
47796;SDS011;33558;50.922;14.068;2022-08-21T00:43:39;44.53;;;32.47;;
47796;SDS011;33558;50.922;14.068;2022-08-21T00:46:06;45.22;;;31.35;;
47796;SDS011;33558;50.922;14.068;2022-08-21T00:48:34;46.58;;;33.05;;
47796;SDS011;33558;50.922;14.068;2022-08-21T00:51:02;52.92;;;32.60;;
47796;SDS011;33558;50.922;14.068;2022-08-21T00:53:32;47.10;;;32.25;;
47796;SDS011;33558;50.922;14.068;2022-08-21T00:55:59;42.53;;;30.85;;
47796;SDS011;33558;50.922;14.068;2022-08-21T00:58:27;48.63;;;33.47;;
47796;SDS011;33558;50.922;14.068;2022-08-21T01:00:55;46.03;;;32.90;;
47796;SDS011;33558;50.922;14.068;2022-08-21T01:03:23;44.25;;;31.38;;
47796;SDS011;33558;50.922;14.068;2022-08-21T01:05:50;44.33;;;30.33;;
47796;SDS011;33558;50.922;14.068;2022-08-21T01:08:18;44.25;;;31.25;;
47796;SDS011;33558;50.922;14.068;2022-08-21T01:10:46;43.90;;;29.60;;
47796;SDS011;33558;50.922;14.068;2022-08-21T01:13:13;44.80;;;31.75;;
47796;SDS011;33558;50.922;14.068;2022-08-21T01:15:44;44.13;;;30.92;;
47796;SDS011;33558;50.922;14.068;2022-08-21T01:18:15;40.65;;;30.17;;
47796;SDS011;33558;50.922;14.068;2022-08-21T01:20:44;44.45;;;30.60;;
47796;SDS011;33558;50.922;14.068;2022-08-21T01:23:14;51.78;;;31.63;;
47796;SDS011;33558;50.922;14.068;2022-08-21T01:25:40;43.03;;;31.58;;
47796;SDS011;33558;50.922;14.068;2022-08-21T01:28:09;44.00;;;31.00;;
47796;SDS011;33558;50.922;14.068;2022-08-21T01:30:40;50.67;;;32.90;;
47796;SDS011;33558;50.922;14.068;2022-08-21T01:33:08;52.90;;;35.13;;
47796;SDS011;33558;50.922;14.068;2022-08-21T01:35:35;55.17;;;37.78;;
47796;SDS011;33558;50.922;14.068;2022-08-21T01:38:02;59.97;;;37.65;;
47796;SDS011;33558;50.922;14.068;2022-08-21T01:40:30;54.03;;;35.47;;
47796;SDS011;33558;50.922;14.068;2022-08-21T01:42:57;49.50;;;35.13;;
47796;SDS011;33558;50.922;14.068;2022-08-21T01:45:24;55.80;;;35.28;;
47796;SDS011;33558;50.922;14.068;2022-08-21T01:47:50;49.55;;;33.88;;
47796;SDS011;33558;50.922;14.068;2022-08-21T01:50:18;56.72;;;36.83;;
47796;SDS011;33558;50.922;14.068;2022-08-21T01:52:46;56.60;;;39.50;;
47796;SDS011;33558;50.922;14.068;2022-08-21T01:55:13;56.63;;;37.15;;
47796;SDS011;33558;50.922;14.068;2022-08-21T01:57:42;59.88;;;38.10;;
47796;SDS011;33558;50.922;14.068;2022-08-21T02:00:10;57.33;;;39.28;;
47796;SDS011;33558;50.922;14.068;2022-08-21T02:02:38;59.17;;;39.05;;
47796;SDS011;33558;50.922;14.068;2022-08-21T02:05:05;49.58;;;36.17;;
47796;SDS011;33558;50.922;14.068;2022-08-21T02:07:35;53.80;;;38.67;;
47796;SDS011;33558;50.922;14.068;2022-08-21T02:10:02;57.85;;;38.78;;
47796;SDS011;33558;50.922;14.068;2022-08-21T02:12:29;71.15;;;43.90;;
47796;SDS011;33558;50.922;14.068;2022-08-21T02:14:57;67.68;;;42.58;;
47796;SDS011;33558;50.922;14.068;2022-08-21T02:29:30;58.38;;;36.03;;
47796;SDS011;33558;50.922;14.068;2022-08-21T02:31:58;51.65;;;33.20;;
47796;SDS011;33558;50.922;14.068;2022-08-21T02:34:24;56.13;;;35.00;;
47796;SDS011;33558;50.922;14.068;2022-08-21T02:36:51;48.70;;;32.20;;
47796;SDS011;33558;50.922;14.068;2022-08-21T02:39:18;40.85;;;27.10;;
47796;SDS011;33558;50.922;14.068;2022-08-21T02:41:45;30.40;;;22.73;;
47796;SDS011;33558;50.922;14.068;2022-08-21T02:44:11;35.00;;;24.52;;
47796;SDS011;33558;50.922;14.068;2022-08-21T02:46:38;34.17;;;24.13;;
47796;SDS011;33558;50.922;14.068;2022-08-21T03:34:43;12.00;;;8.93;;
47796;SDS011;33558;50.922;14.068;2022-08-21T03:40:29;11.85;;;8.88;;
47796;SDS011;33558;50.922;14.068;2022-08-21T03:42:56;10.45;;;8.80;;
47796;SDS011;33558;50.922;14.068;2022-08-21T03:45:24;10.57;;;9.13;;
47796;SDS011;33558;50.922;14.068;2022-08-21T03:47:51;11.38;;;9.45;;
47796;SDS011;33558;50.922;14.068;2022-08-21T03:50:22;12.18;;;9.20;;
47796;SDS011;33558;50.922;14.068;2022-08-21T03:52:49;10.00;;;8.82;;
47796;SDS011;33558;50.922;14.068;2022-08-21T03:55:16;14.05;;;10.32;;
47796;SDS011;33558;50.922;14.068;2022-08-21T03:57:42;12.57;;;9.73;;
47796;SDS011;33558;50.922;14.068;2022-08-21T04:00:10;13.25;;;9.95;;
47796;SDS011;33558;50.922;14.068;2022-08-21T04:02:37;13.23;;;10.70;;
47796;SDS011;33558;50.922;14.068;2022-08-21T04:05:04;11.35;;;10.15;;
47796;SDS011;33558;50.922;14.068;2022-08-21T04:07:33;12.15;;;10.35;;
47796;SDS011;33558;50.922;14.068;2022-08-21T04:10:00;14.27;;;10.70;;
47796;SDS011;33558;50.922;14.068;2022-08-21T04:12:27;16.60;;;10.70;;
47796;SDS011;33558;50.922;14.068;2022-08-21T04:14:53;13.70;;;10.40;;
47796;SDS011;33558;50.922;14.068;2022-08-21T04:17:20;17.08;;;11.18;;
47796;SDS011;33558;50.922;14.068;2022-08-21T04:19:47;12.35;;;10.18;;
47796;SDS011;33558;50.922;14.068;2022-08-21T04:22:14;14.32;;;10.75;;
47796;SDS011;33558;50.922;14.068;2022-08-21T04:24:42;15.40;;;10.48;;
47796;SDS011;33558;50.922;14.068;2022-08-21T04:27:09;13.70;;;10.55;;
47796;SDS011;33558;50.922;14.068;2022-08-21T04:29:36;14.57;;;10.10;;
47796;SDS011;33558;50.922;14.068;2022-08-21T04:32:03;15.35;;;11.15;;
47796;SDS011;33558;50.922;14.068;2022-08-21T04:34:30;13.60;;;10.95;;
47796;SDS011;33558;50.922;14.068;2022-08-21T04:36:56;13.18;;;10.63;;
47796;SDS011;33558;50.922;14.068;2022-08-21T04:39:23;11.77;;;9.60;;
47796;SDS011;33558;50.922;14.068;2022-08-21T04:41:51;14.02;;;10.30;;
47796;SDS011;33558;50.922;14.068;2022-08-21T04:44:17;13.63;;;10.23;;
47796;SDS011;33558;50.922;14.068;2022-08-21T04:46:44;14.23;;;10.13;;
47796;SDS011;33558;50.922;14.068;2022-08-21T04:49:10;11.70;;;9.38;;
47796;SDS011;33558;50.922;14.068;2022-08-21T04:51:37;13.38;;;10.27;;
47796;SDS011;33558;50.922;14.068;2022-08-21T04:54:06;21.48;;;11.57;;
47796;SDS011;33558;50.922;14.068;2022-08-21T04:56:36;13.82;;;10.68;;
47796;SDS011;33558;50.922;14.068;2022-08-21T04:59:11;13.75;;;11.45;;
47796;SDS011;33558;50.922;14.068;2022-08-21T05:04:08;16.42;;;10.82;;
47796;SDS011;33558;50.922;14.068;2022-08-21T05:06:37;14.30;;;10.32;;
47796;SDS011;33558;50.922;14.068;2022-08-21T05:09:04;11.98;;;10.77;;
47796;SDS011;33558;50.922;14.068;2022-08-21T05:11:31;12.50;;;10.75;;
47796;SDS011;33558;50.922;14.068;2022-08-21T05:13:58;16.60;;;11.30;;
47796;SDS011;33558;50.922;14.068;2022-08-21T05:16:26;14.77;;;11.35;;
47796;SDS011;33558;50.922;14.068;2022-08-21T05:18:53;14.88;;;12.07;;
47796;SDS011;33558;50.922;14.068;2022-08-21T05:21:19;18.63;;;13.45;;
47796;SDS011;33558;50.922;14.068;2022-08-21T05:23:46;17.17;;;12.10;;
47796;SDS011;33558;50.922;14.068;2022-08-21T05:26:13;16.67;;;12.77;;
47796;SDS011;33558;50.922;14.068;2022-08-21T05:28:40;12.65;;;10.98;;
47796;SDS011;33558;50.922;14.068;2022-08-21T05:31:06;14.82;;;12.35;;
47796;SDS011;33558;50.922;14.068;2022-08-21T05:33:34;14.65;;;11.43;;
47796;SDS011;33558;50.922;14.068;2022-08-21T05:36:01;12.65;;;10.93;;
47796;SDS011;33558;50.922;14.068;2022-08-21T05:38:28;12.85;;;10.77;;
47796;SDS011;33558;50.922;14.068;2022-08-21T05:40:54;12.57;;;10.98;;
47796;SDS011;33558;50.922;14.068;2022-08-21T05:43:21;11.88;;;10.13;;
47796;SDS011;33558;50.922;14.068;2022-08-21T05:45:48;12.95;;;10.35;;
47796;SDS011;33558;50.922;14.068;2022-08-21T05:48:17;14.98;;;10.48;;
47796;SDS011;33558;50.922;14.068;2022-08-21T05:50:46;11.90;;;10.50;;
47796;SDS011;33558;50.922;14.068;2022-08-21T05:53:15;10.93;;;9.75;;
47796;SDS011;33558;50.922;14.068;2022-08-21T05:55:43;10.38;;;9.27;;
47796;SDS011;33558;50.922;14.068;2022-08-21T05:58:10;9.90;;;8.90;;
47796;SDS011;33558;50.922;14.068;2022-08-21T06:00:37;10.38;;;9.20;;
47796;SDS011;33558;50.922;14.068;2022-08-21T06:03:03;11.40;;;9.95;;
47796;SDS011;33558;50.922;14.068;2022-08-21T06:05:30;12.02;;;9.70;;
47796;SDS011;33558;50.922;14.068;2022-08-21T06:07:58;13.10;;;10.18;;
47796;SDS011;33558;50.922;14.068;2022-08-21T06:10:25;11.57;;;9.40;;
47796;SDS011;33558;50.922;14.068;2022-08-21T06:12:52;15.35;;;8.98;;
47796;SDS011;33558;50.922;14.068;2022-08-21T06:15:20;13.35;;;9.07;;
47796;SDS011;33558;50.922;14.068;2022-08-21T06:17:46;10.02;;;8.93;;
47796;SDS011;33558;50.922;14.068;2022-08-21T06:20:13;10.25;;;8.40;;
47796;SDS011;33558;50.922;14.068;2022-08-21T06:22:40;10.05;;;8.10;;
47796;SDS011;33558;50.922;14.068;2022-08-21T06:25:08;11.98;;;8.50;;
47796;SDS011;33558;50.922;14.068;2022-08-21T06:27:35;8.73;;;7.18;;
47796;SDS011;33558;50.922;14.068;2022-08-21T06:30:02;8.20;;;7.40;;
47796;SDS011;33558;50.922;14.068;2022-08-21T06:32:30;9.18;;;7.13;;
47796;SDS011;33558;50.922;14.068;2022-08-21T06:34:56;8.07;;;7.30;;
47796;SDS011;33558;50.922;14.068;2022-08-21T06:37:23;10.65;;;8.35;;
47796;SDS011;33558;50.922;14.068;2022-08-21T06:39:50;10.35;;;8.07;;
47796;SDS011;33558;50.922;14.068;2022-08-21T06:42:18;10.23;;;8.48;;
47796;SDS011;33558;50.922;14.068;2022-08-21T06:44:45;9.23;;;8.07;;
47796;SDS011;33558;50.922;14.068;2022-08-21T06:47:13;9.27;;;7.60;;
47796;SDS011;33558;50.922;14.068;2022-08-21T06:49:39;13.13;;;7.65;;
47796;SDS011;33558;50.922;14.068;2022-08-21T06:52:08;9.40;;;7.40;;
47796;SDS011;33558;50.922;14.068;2022-08-21T06:54:37;9.70;;;8.00;;
47796;SDS011;33558;50.922;14.068;2022-08-21T06:57:04;8.88;;;7.82;;
47796;SDS011;33558;50.922;14.068;2022-08-21T06:59:33;8.93;;;8.02;;
47796;SDS011;33558;50.922;14.068;2022-08-21T07:01:59;10.45;;;8.52;;
47796;SDS011;33558;50.922;14.068;2022-08-21T07:04:26;9.63;;;8.60;;
47796;SDS011;33558;50.922;14.068;2022-08-21T07:06:53;8.57;;;7.68;;
47796;SDS011;33558;50.922;14.068;2022-08-21T07:09:19;10.00;;;8.73;;
47796;SDS011;33558;50.922;14.068;2022-08-21T07:11:47;7.82;;;7.03;;
47796;SDS011;33558;50.922;14.068;2022-08-21T07:14:16;9.55;;;8.20;;
47796;SDS011;33558;50.922;14.068;2022-08-21T07:16:44;12.63;;;7.95;;
47796;SDS011;33558;50.922;14.068;2022-08-21T07:19:10;9.18;;;8.25;;
47796;SDS011;33558;50.922;14.068;2022-08-21T07:21:37;9.32;;;7.82;;
47796;SDS011;33558;50.922;14.068;2022-08-21T07:24:04;10.20;;;7.63;;
47796;SDS011;33558;50.922;14.068;2022-08-21T07:26:31;7.95;;;7.13;;
47796;SDS011;33558;50.922;14.068;2022-08-21T07:28:57;8.07;;;7.20;;
47796;SDS011;33558;50.922;14.068;2022-08-21T07:31:25;8.35;;;7.20;;
47796;SDS011;33558;50.922;14.068;2022-08-21T07:33:53;9.15;;;7.10;;
47796;SDS011;33558;50.922;14.068;2022-08-21T07:36:20;12.70;;;8.02;;
47796;SDS011;33558;50.922;14.068;2022-08-21T07:38:47;8.40;;;7.22;;
47796;SDS011;33558;50.922;14.068;2022-08-21T07:41:14;9.70;;;8.70;;
47796;SDS011;33558;50.922;14.068;2022-08-21T07:43:42;10.32;;;9.13;;
47796;SDS011;33558;50.922;14.068;2022-08-21T07:46:09;11.27;;;8.57;;
47796;SDS011;33558;50.922;14.068;2022-08-21T07:48:36;8.82;;;7.90;;
47796;SDS011;33558;50.922;14.068;2022-08-21T07:51:07;11.18;;;8.85;;
47796;SDS011;33558;50.922;14.068;2022-08-21T07:53:35;13.07;;;10.23;;
47796;SDS011;33558;50.922;14.068;2022-08-21T07:56:02;9.93;;;8.45;;
47796;SDS011;33558;50.922;14.068;2022-08-21T07:58:29;11.50;;;10.30;;
47796;SDS011;33558;50.922;14.068;2022-08-21T08:00:56;10.80;;;9.23;;
47796;SDS011;33558;50.922;14.068;2022-08-21T08:03:23;17.90;;;9.18;;
47796;SDS011;33558;50.922;14.068;2022-08-21T08:05:50;10.35;;;8.80;;
47796;SDS011;33558;50.922;14.068;2022-08-21T08:08:19;9.93;;;8.60;;
47796;SDS011;33558;50.922;14.068;2022-08-21T08:10:46;9.70;;;8.70;;
47796;SDS011;33558;50.922;14.068;2022-08-21T08:13:14;9.88;;;8.75;;
47796;SDS011;33558;50.922;14.068;2022-08-21T08:15:42;10.32;;;9.32;;
47796;SDS011;33558;50.922;14.068;2022-08-21T08:18:08;10.50;;;9.13;;
47796;SDS011;33558;50.922;14.068;2022-08-21T08:20:35;9.85;;;8.60;;
47796;SDS011;33558;50.922;14.068;2022-08-21T08:23:02;10.25;;;9.05;;
47796;SDS011;33558;50.922;14.068;2022-08-21T08:25:30;10.13;;;8.27;;
47796;SDS011;33558;50.922;14.068;2022-08-21T08:27:56;10.90;;;9.00;;
47796;SDS011;33558;50.922;14.068;2022-08-21T08:30:23;11.63;;;8.85;;
47796;SDS011;33558;50.922;14.068;2022-08-21T08:32:50;13.63;;;9.07;;
47796;SDS011;33558;50.922;14.068;2022-08-21T08:35:17;11.80;;;9.50;;
47796;SDS011;33558;50.922;14.068;2022-08-21T08:37:44;10.73;;;9.23;;
47796;SDS011;33558;50.922;14.068;2022-08-21T08:40:12;9.88;;;8.98;;
47796;SDS011;33558;50.922;14.068;2022-08-21T08:42:42;9.52;;;8.57;;
47796;SDS011;33558;50.922;14.068;2022-08-21T08:45:10;12.18;;;9.82;;
47796;SDS011;33558;50.922;14.068;2022-08-21T08:47:39;9.75;;;8.75;;
47796;SDS011;33558;50.922;14.068;2022-08-21T08:50:07;10.32;;;8.80;;
47796;SDS011;33558;50.922;14.068;2022-08-21T08:52:40;13.57;;;9.10;;
47796;SDS011;33558;50.922;14.068;2022-08-21T08:55:11;11.73;;;8.70;;
47796;SDS011;33558;50.922;14.068;2022-08-21T08:57:39;11.68;;;10.05;;
47796;SDS011;33558;50.922;14.068;2022-08-21T09:00:11;9.18;;;8.18;;
47796;SDS011;33558;50.922;14.068;2022-08-21T09:02:41;12.30;;;9.68;;
47796;SDS011;33558;50.922;14.068;2022-08-21T09:05:09;11.68;;;8.90;;
47796;SDS011;33558;50.922;14.068;2022-08-21T09:07:46;10.73;;;9.27;;
47796;SDS011;33558;50.922;14.068;2022-08-21T09:10:19;11.43;;;8.40;;
47796;SDS011;33558;50.922;14.068;2022-08-21T09:12:51;11.38;;;8.27;;
47796;SDS011;33558;50.922;14.068;2022-08-21T09:15:24;12.30;;;8.90;;
47796;SDS011;33558;50.922;14.068;2022-08-21T09:18:05;11.40;;;9.20;;
47796;SDS011;33558;50.922;14.068;2022-08-21T09:20:41;8.77;;;7.75;;
47796;SDS011;33558;50.922;14.068;2022-08-21T09:23:17;9.10;;;7.05;;
47796;SDS011;33558;50.922;14.068;2022-08-21T09:25:55;9.75;;;6.72;;
47796;SDS011;33558;50.922;14.068;2022-08-21T09:28:27;8.00;;;5.28;;
47796;SDS011;33558;50.922;14.068;2022-08-21T09:30:58;7.35;;;5.70;;
47796;SDS011;33558;50.922;14.068;2022-08-21T09:33:27;8.80;;;5.88;;
47796;SDS011;33558;50.922;14.068;2022-08-21T09:35:55;7.20;;;5.15;;
47796;SDS011;33558;50.922;14.068;2022-08-21T09:38:24;10.10;;;5.75;;
47796;SDS011;33558;50.922;14.068;2022-08-21T09:40:56;6.75;;;4.85;;
47796;SDS011;33558;50.922;14.068;2022-08-21T09:43:23;6.53;;;4.72;;
47796;SDS011;33558;50.922;14.068;2022-08-21T09:46:02;7.65;;;4.80;;
47796;SDS011;33558;50.922;14.068;2022-08-21T09:48:38;8.60;;;4.40;;
47796;SDS011;33558;50.922;14.068;2022-08-21T09:53:34;6.38;;;4.00;;
47796;SDS011;33558;50.922;14.068;2022-08-21T09:56:03;6.35;;;3.67;;
47796;SDS011;33558;50.922;14.068;2022-08-21T09:58:49;5.80;;;3.25;;
47796;SDS011;33558;50.922;14.068;2022-08-21T10:01:19;6.60;;;3.20;;
47796;SDS011;33558;50.922;14.068;2022-08-21T10:03:48;7.30;;;3.00;;
47796;SDS011;33558;50.922;14.068;2022-08-21T10:06:21;8.00;;;4.00;;
47796;SDS011;33558;50.922;14.068;2022-08-21T10:08:49;9.07;;;3.22;;
47796;SDS011;33558;50.922;14.068;2022-08-21T10:11:16;5.45;;;3.42;;
47796;SDS011;33558;50.922;14.068;2022-08-21T10:13:59;5.55;;;3.40;;
47796;SDS011;33558;50.922;14.068;2022-08-21T10:16:33;6.00;;;3.80;;
47796;SDS011;33558;50.922;14.068;2022-08-21T10:19:15;7.75;;;3.78;;
47796;SDS011;33558;50.922;14.068;2022-08-21T10:21:46;6.65;;;3.35;;
47796;SDS011;33558;50.922;14.068;2022-08-21T10:24:22;6.03;;;3.28;;
47796;SDS011;33558;50.922;14.068;2022-08-21T10:26:54;7.25;;;3.53;;
47796;SDS011;33558;50.922;14.068;2022-08-21T10:29:32;5.97;;;3.25;;
47796;SDS011;33558;50.922;14.068;2022-08-21T10:32:08;7.07;;;3.72;;
47796;SDS011;33558;50.922;14.068;2022-08-21T10:34:43;5.63;;;3.22;;
47796;SDS011;33558;50.922;14.068;2022-08-21T10:37:18;10.23;;;4.30;;
47796;SDS011;33558;50.922;14.068;2022-08-21T10:39:52;7.93;;;3.95;;
47796;SDS011;33558;50.922;14.068;2022-08-21T10:42:29;5.53;;;3.63;;
47796;SDS011;33558;50.922;14.068;2022-08-21T10:45:07;6.30;;;3.90;;
47796;SDS011;33558;50.922;14.068;2022-08-21T10:47:40;6.00;;;3.50;;
47796;SDS011;33558;50.922;14.068;2022-08-21T10:50:10;5.88;;;3.70;;
47796;SDS011;33558;50.922;14.068;2022-08-21T10:52:46;4.63;;;3.35;;
47796;SDS011;33558;50.922;14.068;2022-08-21T10:55:19;6.63;;;3.72;;
47796;SDS011;33558;50.922;14.068;2022-08-21T10:57:50;7.07;;;3.30;;
47796;SDS011;33558;50.922;14.068;2022-08-21T11:00:18;6.88;;;3.63;;
47796;SDS011;33558;50.922;14.068;2022-08-21T11:02:49;6.82;;;3.10;;
47796;SDS011;33558;50.922;14.068;2022-08-21T11:05:29;6.35;;;3.30;;
47796;SDS011;33558;50.922;14.068;2022-08-21T11:08:00;9.70;;;4.20;;
47796;SDS011;33558;50.922;14.068;2022-08-21T11:10:29;3.78;;;3.10;;
47796;SDS011;33558;50.922;14.068;2022-08-21T11:13:00;6.68;;;3.85;;
47796;SDS011;33558;50.922;14.068;2022-08-21T11:15:33;7.50;;;3.13;;
47796;SDS011;33558;50.922;14.068;2022-08-21T11:18:17;5.07;;;2.90;;
47796;SDS011;33558;50.922;14.068;2022-08-21T11:20:49;7.20;;;3.05;;
47796;SDS011;33558;50.922;14.068;2022-08-21T11:23:18;4.55;;;2.40;;
47796;SDS011;33558;50.922;14.068;2022-08-21T11:25:50;3.38;;;2.53;;
47796;SDS011;33558;50.922;14.068;2022-08-21T11:28:21;5.22;;;2.80;;
47796;SDS011;33558;50.922;14.068;2022-08-21T11:30:52;6.07;;;2.80;;
47796;SDS011;33558;50.922;14.068;2022-08-21T11:33:29;3.20;;;2.20;;
47796;SDS011;33558;50.922;14.068;2022-08-21T11:36:07;7.07;;;2.88;;
47796;SDS011;33558;50.922;14.068;2022-08-21T11:38:40;5.65;;;2.72;;
47796;SDS011;33558;50.922;14.068;2022-08-21T11:41:12;7.25;;;3.85;;
47796;SDS011;33558;50.922;14.068;2022-08-21T11:46:12;6.57;;;3.63;;
47796;SDS011;33558;50.922;14.068;2022-08-21T11:48:48;6.20;;;3.72;;
47796;SDS011;33558;50.922;14.068;2022-08-21T11:51:20;6.28;;;3.13;;
47796;SDS011;33558;50.922;14.068;2022-08-21T11:53:50;4.80;;;2.72;;
47796;SDS011;33558;50.922;14.068;2022-08-21T11:56:21;7.95;;;2.50;;
47796;SDS011;33558;50.922;14.068;2022-08-21T11:58:51;8.75;;;2.72;;
47796;SDS011;33558;50.922;14.068;2022-08-21T12:01:20;8.25;;;2.30;;
47796;SDS011;33558;50.922;14.068;2022-08-21T12:03:53;5.05;;;1.70;;
47796;SDS011;33558;50.922;14.068;2022-08-21T12:06:28;5.65;;;2.20;;
47796;SDS011;33558;50.922;14.068;2022-08-21T12:08:57;8.13;;;2.42;;
47796;SDS011;33558;50.922;14.068;2022-08-21T12:11:25;6.40;;;2.25;;
47796;SDS011;33558;50.922;14.068;2022-08-21T12:13:53;4.18;;;1.73;;
47796;SDS011;33558;50.922;14.068;2022-08-21T12:16:28;6.70;;;2.42;;
47796;SDS011;33558;50.922;14.068;2022-08-21T12:19:03;6.82;;;2.60;;
47796;SDS011;33558;50.922;14.068;2022-08-21T12:21:31;7.07;;;2.97;;
47796;SDS011;33558;50.922;14.068;2022-08-21T12:24:03;4.75;;;2.67;;
47796;SDS011;33558;50.922;14.068;2022-08-21T12:26:32;6.15;;;2.50;;
47796;SDS011;33558;50.922;14.068;2022-08-21T12:31:49;6.00;;;2.60;;
47796;SDS011;33558;50.922;14.068;2022-08-21T12:34:19;5.32;;;2.55;;
47796;SDS011;33558;50.922;14.068;2022-08-21T12:36:48;4.35;;;2.35;;
47796;SDS011;33558;50.922;14.068;2022-08-21T12:39:20;6.80;;;2.63;;
47796;SDS011;33558;50.922;14.068;2022-08-21T12:41:49;6.50;;;2.53;;
47796;SDS011;33558;50.922;14.068;2022-08-21T12:44:20;7.03;;;2.70;;
47796;SDS011;33558;50.922;14.068;2022-08-21T12:46:50;5.63;;;2.60;;
47796;SDS011;33558;50.922;14.068;2022-08-21T12:49:22;5.53;;;2.08;;
47796;SDS011;33558;50.922;14.068;2022-08-21T12:51:54;10.02;;;2.83;;
47796;SDS011;33558;50.922;14.068;2022-08-21T12:54:22;3.83;;;2.00;;
47796;SDS011;33558;50.922;14.068;2022-08-21T12:56:57;6.10;;;2.00;;
47796;SDS011;33558;50.922;14.068;2022-08-21T12:59:25;6.03;;;1.65;;
47796;SDS011;33558;50.922;14.068;2022-08-21T13:01:52;4.97;;;1.52;;
47796;SDS011;33558;50.922;14.068;2022-08-21T13:04:22;3.75;;;1.60;;
47796;SDS011;33558;50.922;14.068;2022-08-21T13:06:54;4.88;;;1.70;;
47796;SDS011;33558;50.922;14.068;2022-08-21T13:09:24;5.75;;;1.65;;
47796;SDS011;33558;50.922;14.068;2022-08-21T13:11:52;6.30;;;1.80;;
47796;SDS011;33558;50.922;14.068;2022-08-21T13:14:21;5.18;;;1.77;;
47796;SDS011;33558;50.922;14.068;2022-08-21T13:16:52;6.88;;;2.10;;
47796;SDS011;33558;50.922;14.068;2022-08-21T13:19:19;4.30;;;1.77;;
47796;SDS011;33558;50.922;14.068;2022-08-21T13:21:47;4.85;;;1.40;;
47796;SDS011;33558;50.922;14.068;2022-08-21T13:24:15;6.38;;;1.70;;
47796;SDS011;33558;50.922;14.068;2022-08-21T13:26:44;6.15;;;1.50;;
47796;SDS011;33558;50.922;14.068;2022-08-21T13:29:11;5.10;;;1.80;;
47796;SDS011;33558;50.922;14.068;2022-08-21T13:31:41;4.30;;;1.60;;
47796;SDS011;33558;50.922;14.068;2022-08-21T13:34:12;5.53;;;1.58;;
47796;SDS011;33558;50.922;14.068;2022-08-21T13:36:41;5.68;;;1.50;;
47796;SDS011;33558;50.922;14.068;2022-08-21T13:39:10;3.28;;;1.40;;
47796;SDS011;33558;50.922;14.068;2022-08-21T13:41:40;4.60;;;1.27;;
47796;SDS011;33558;50.922;14.068;2022-08-21T13:44:14;4.05;;;1.55;;
47796;SDS011;33558;50.922;14.068;2022-08-21T13:46:42;4.45;;;1.50;;
47796;SDS011;33558;50.922;14.068;2022-08-21T13:49:09;3.40;;;1.10;;
47796;SDS011;33558;50.922;14.068;2022-08-21T13:51:36;8.38;;;1.55;;
47796;SDS011;33558;50.922;14.068;2022-08-21T13:54:14;3.38;;;1.33;;
47796;SDS011;33558;50.922;14.068;2022-08-21T13:56:42;4.53;;;1.40;;
47796;SDS011;33558;50.922;14.068;2022-08-21T13:59:09;5.80;;;1.52;;
47796;SDS011;33558;50.922;14.068;2022-08-21T14:01:37;4.72;;;1.38;;
47796;SDS011;33558;50.922;14.068;2022-08-21T14:04:06;6.25;;;1.75;;
47796;SDS011;33558;50.922;14.068;2022-08-21T14:06:34;2.97;;;1.23;;
47796;SDS011;33558;50.922;14.068;2022-08-21T14:09:08;3.75;;;1.42;;
47796;SDS011;33558;50.922;14.068;2022-08-21T14:11:38;3.22;;;1.23;;
47796;SDS011;33558;50.922;14.068;2022-08-21T14:14:11;5.25;;;1.50;;
47796;SDS011;33558;50.922;14.068;2022-08-21T14:16:45;3.50;;;1.30;;
47796;SDS011;33558;50.922;14.068;2022-08-21T14:19:17;4.55;;;1.60;;
47796;SDS011;33558;50.922;14.068;2022-08-21T14:21:45;2.67;;;1.30;;
47796;SDS011;33558;50.922;14.068;2022-08-21T14:24:12;3.60;;;1.23;;
47796;SDS011;33558;50.922;14.068;2022-08-21T14:26:46;4.28;;;1.38;;
47796;SDS011;33558;50.922;14.068;2022-08-21T14:29:15;3.25;;;1.30;;
47796;SDS011;33558;50.922;14.068;2022-08-21T14:31:42;4.00;;;1.40;;
47796;SDS011;33558;50.922;14.068;2022-08-21T14:34:10;3.65;;;1.27;;
47796;SDS011;33558;50.922;14.068;2022-08-21T14:36:38;3.50;;;1.38;;
47796;SDS011;33558;50.922;14.068;2022-08-21T14:39:05;5.10;;;1.63;;
47796;SDS011;33558;50.922;14.068;2022-08-21T14:41:31;4.93;;;1.50;;
47796;SDS011;33558;50.922;14.068;2022-08-21T14:43:59;3.50;;;1.30;;
47796;SDS011;33558;50.922;14.068;2022-08-21T14:46:27;6.18;;;1.52;;
47796;SDS011;33558;50.922;14.068;2022-08-21T14:48:54;5.05;;;1.42;;
47796;SDS011;33558;50.922;14.068;2022-08-21T14:51:21;3.55;;;1.35;;
47796;SDS011;33558;50.922;14.068;2022-08-21T14:53:48;2.72;;;1.15;;
47796;SDS011;33558;50.922;14.068;2022-08-21T14:56:15;3.50;;;1.20;;
47796;SDS011;33558;50.922;14.068;2022-08-21T14:58:43;3.60;;;1.45;;
47796;SDS011;33558;50.922;14.068;2022-08-21T15:01:15;4.82;;;1.70;;
47796;SDS011;33558;50.922;14.068;2022-08-21T15:03:43;3.72;;;1.15;;
47796;SDS011;33558;50.922;14.068;2022-08-21T15:06:11;3.42;;;0.90;;
47796;SDS011;33558;50.922;14.068;2022-08-21T15:08:38;3.65;;;1.30;;
47796;SDS011;33558;50.922;14.068;2022-08-21T15:11:05;2.85;;;1.25;;
47796;SDS011;33558;50.922;14.068;2022-08-21T15:13:32;3.47;;;1.27;;
47796;SDS011;33558;50.922;14.068;2022-08-21T15:15:59;2.35;;;1.08;;
47796;SDS011;33558;50.922;14.068;2022-08-21T15:18:28;3.42;;;1.38;;
47796;SDS011;33558;50.922;14.068;2022-08-21T15:20:56;2.70;;;1.05;;
47796;SDS011;33558;50.922;14.068;2022-08-21T15:23:23;3.13;;;1.30;;
47796;SDS011;33558;50.922;14.068;2022-08-21T15:25:50;2.67;;;1.58;;
47796;SDS011;33558;50.922;14.068;2022-08-21T15:28:18;2.35;;;1.00;;
47796;SDS011;33558;50.922;14.068;2022-08-21T15:30:46;4.72;;;1.10;;
47796;SDS011;33558;50.922;14.068;2022-08-21T15:33:13;6.32;;;1.60;;
47796;SDS011;33558;50.922;14.068;2022-08-21T15:35:41;2.97;;;1.20;;
47796;SDS011;33558;50.922;14.068;2022-08-21T15:38:08;2.55;;;1.15;;
47796;SDS011;33558;50.922;14.068;2022-08-21T15:40:35;1.50;;;0.88;;
47796;SDS011;33558;50.922;14.068;2022-08-21T15:43:03;4.78;;;1.23;;
47796;SDS011;33558;50.922;14.068;2022-08-21T15:45:31;3.55;;;1.30;;